Time;durP1;ratioP1;P1;durP2;ratioP2;P2;SDS_P1;SDS_P2;PMS_P1;PMS_P2;Temp;Humidity;BMP_temperature;BMP_pressure;BME280_temperature;BME280_humidity;BME280_pressure;Samples;Min_cycle;Max_cycle;Signal;HPM_P1;HPM_P2
2021/12/21 00:01:07;;;;;;;16.10;8.87;;;;;;;-3.35;100.00;98989.69;5052711;28;20218;-63
2021/12/21 00:03:33;;;;;;;14.37;8.37;;;;;;;-3.34;100.00;98993.97;5052855;28;20217;-63
2021/12/21 00:06:00;;;;;;;11.67;8.33;;;;;;;-3.29;100.00;98984.50;5052476;28;20222;-63
2021/12/21 00:08:28;;;;;;;11.23;7.90;;;;;;;-3.26;100.00;98985.34;5052762;28;20210;-63
2021/12/21 00:10:55;;;;;;;12.20;6.97;;;;;;;-3.25;100.00;98992.25;5052509;28;20213;-63
2021/12/21 00:13:35;;;;;;;14.23;8.43;;;;;;;-3.33;100.00;98988.81;5050694;28;20233;-63
2021/12/21 00:16:11;;;;;;;13.33;7.67;;;;;;;-3.40;100.00;98975.91;5052966;28;20501;-63
2021/12/21 00:18:43;;;;;;;13.67;8.70;;;;;;;-3.46;100.00;98978.50;5052726;28;20229;-63
2021/12/21 00:21:19;;;;;;;14.73;8.23;;;;;;;-3.51;100.00;98975.91;5052547;28;20222;-63
2021/12/21 00:23:50;;;;;;;17.90;8.30;;;;;;;-3.56;100.00;98969.03;5056128;28;20227;-63
2021/12/21 00:26:20;;;;;;;12.93;7.37;;;;;;;-3.57;100.00;98973.34;5052795;28;20222;-63
2021/12/21 00:28:55;;;;;;;13.13;7.00;;;;;;;-3.61;100.00;98968.19;5056549;28;20218;-63
2021/12/21 00:31:22;;;;;;;12.20;7.90;;;;;;;-3.66;100.00;98967.31;5056504;28;20225;-63
2021/12/21 00:33:49;;;;;;;12.10;7.33;;;;;;;-3.68;100.00;98969.88;5056350;28;20320;-63
2021/12/21 00:36:17;;;;;;;12.20;7.33;;;;;;;-3.69;100.00;98967.28;5056497;28;20209;-63
2021/12/21 00:38:43;;;;;;;9.17;6.43;;;;;;;-3.71;100.00;98966.44;5054794;28;20666;-63
2021/12/21 00:41:12;;;;;;;12.13;7.43;;;;;;;-3.68;100.00;98963.88;5056068;28;20224;-63
2021/12/21 00:43:38;;;;;;;11.60;7.63;;;;;;;-3.67;100.00;98956.09;5056181;28;20587;-63
2021/12/21 00:46:05;;;;;;;12.97;7.47;;;;;;;-3.59;100.00;98958.69;5056035;28;20209;-63
2021/12/21 00:48:34;;;;;;;12.23;6.83;;;;;;;-3.62;100.00;98956.13;5056237;28;20229;-63
2021/12/21 00:51:03;;;;;;;16.33;7.80;;;;;;;-3.62;100.00;98950.97;5055782;28;20587;-63
2021/12/21 00:53:29;;;;;;;16.43;8.57;;;;;;;-3.70;100.00;98944.91;5055956;28;20243;-63
2021/12/21 00:55:56;;;;;;;13.17;7.97;;;;;;;-3.69;100.00;98941.47;5056029;28;20217;-63
2021/12/21 00:58:24;;;;;;;12.70;7.50;;;;;;;-3.71;100.00;98945.78;5055942;28;20239;-63
2021/12/21 01:00:50;;;;;;;13.20;8.70;;;;;;;-3.63;100.00;98942.34;5056017;28;20228;-63
2021/12/21 01:03:18;;;;;;;15.37;7.67;;;;;;;-3.59;100.00;98943.19;5055761;28;20220;-63
2021/12/21 01:05:50;;;;;;;12.07;7.73;;;;;;;-3.59;100.00;98940.63;5054308;28;20297;-63
2021/12/21 01:08:21;;;;;;;11.63;7.40;;;;;;;-3.57;100.00;98937.16;5055601;28;20222;-63
2021/12/21 01:11:07;;;;;;;11.03;6.87;;;;;;;-3.61;100.00;98934.59;5055605;28;20672;-63
2021/12/21 01:16:23;;;;;;;11.97;7.03;;;;;;;-3.73;100.00;98930.28;5052775;28;20227;-63
2021/12/21 01:19:06;;;;;;;13.40;8.27;;;;;;;-3.77;100.00;98932.88;5055578;28;20630;-63
2021/12/21 01:21:37;;;;;;;14.33;7.33;;;;;;;-3.80;100.00;98933.72;5055713;28;20622;-63
2021/12/21 01:24:32;;;;;;;9.83;7.23;;;;;;;-3.81;100.00;98931.13;5055560;28;20259;-63
2021/12/21 01:27:12;;;;;;;12.93;7.93;;;;;;;-3.85;100.00;98929.44;5045571;28;20222;-63
2021/12/21 01:29:49;;;;;;;14.13;7.73;;;;;;;-3.85;100.00;98929.44;5055385;28;20221;-63
2021/12/21 01:32:24;;;;;;;15.13;7.97;;;;;;;-3.81;100.00;98931.13;5048883;28;20213;-63
2021/12/21 01:34:59;;;;;;;13.87;8.03;;;;;;;-3.83;100.00;98927.72;5054816;28;20294;-63
2021/12/21 01:37:33;;;;;;;11.90;7.63;;;;;;;-3.80;100.00;98927.72;5055052;28;20675;-63
2021/12/21 01:40:13;;;;;;;12.80;7.70;;;;;;;-3.85;100.00;98926.84;5047108;28;20221;-63
2021/12/21 01:43:04;;;;;;;11.20;7.07;;;;;;;-3.85;100.00;98925.13;5054922;28;20253;-63
2021/12/21 01:51:02;;;;;;;13.47;7.80;;;;;;;-3.83;100.00;98927.72;5054911;28;20747;-63
2021/12/21 01:53:29;;;;;;;12.80;7.37;;;;;;;-3.85;100.00;98929.44;5054995;28;20236;-63
2021/12/21 01:55:56;;;;;;;13.87;8.03;;;;;;;-3.84;100.00;98932.03;5053777;28;20213;-63
2021/12/21 01:58:22;;;;;;;14.17;8.10;;;;;;;-3.83;100.00;98928.59;5053953;28;20218;-63
2021/12/21 02:00:50;;;;;;;12.50;7.37;;;;;;;-3.88;100.00;98921.69;5054877;28;20585;-63
2021/12/21 02:03:17;;;;;;;11.10;7.27;;;;;;;-3.92;100.00;98923.41;5054768;28;20239;-63
2021/12/21 02:05:44;;;;;;;13.23;7.80;;;;;;;-3.95;100.00;98927.72;5054825;28;20217;-63
2021/12/21 02:08:10;;;;;;;11.87;7.27;;;;;;;-3.97;100.00;98921.69;5054647;28;20219;-62
2021/12/21 02:10:37;;;;;;;14.83;7.73;;;;;;;-3.95;100.00;98922.53;5054816;28;20213;-63
2021/12/21 02:13:04;;;;;;;14.10;7.73;;;;;;;-3.94;100.00;98919.97;5054613;28;20217;-63
2021/12/21 02:15:30;;;;;;;15.10;7.77;;;;;;;-3.90;100.00;98920.81;5054640;28;20213;-62
2021/12/21 02:18:27;;;;;;;13.10;8.17;;;;;;;-3.92;100.00;98927.72;5054599;28;20223;-63
2021/12/21 02:20:57;;;;;;;13.33;6.90;;;;;;;-3.87;100.00;98929.44;5053968;28;20252;-63
2021/12/21 02:23:29;;;;;;;10.57;6.57;;;;;;;-3.90;100.00;98920.81;5052806;28;20216;-63
2021/12/21 02:26:23;;;;;;;11.07;7.00;;;;;;;-3.89;100.00;98919.97;5054378;28;20216;-63
2021/12/21 02:29:10;;;;;;;13.07;7.60;;;;;;;-3.82;100.00;98913.94;5054063;28;20217;-63
2021/12/21 02:31:38;;;;;;;13.50;7.37;;;;;;;-3.72;100.00;98910.50;5054290;28;20255;-63
2021/12/21 02:34:05;;;;;;;16.03;8.43;;;;;;;-3.72;100.00;98911.34;5054158;28;20248;-63
2021/12/21 02:36:33;;;;;;;12.27;7.80;;;;;;;-3.71;100.00;98912.22;5054136;28;20215;-63
2021/12/21 02:39:00;;;;;;;14.37;7.80;;;;;;;-3.67;100.00;98913.94;5038394;28;20241;-63
2021/12/21 02:41:26;;;;;;;10.93;7.50;;;;;;;-3.68;100.00;98905.31;5054114;28;20219;-63
2021/12/21 02:43:53;;;;;;;16.77;8.37;;;;;;;-3.78;100.00;98916.50;5053908;28;20296;-63
2021/12/21 02:46:20;;;;;;;12.50;6.80;;;;;;;-3.85;100.00;98908.78;5053199;28;20259;-63
2021/12/21 02:48:46;;;;;;;13.53;8.07;;;;;;;-3.93;100.00;98910.47;5052040;28;20223;-63
2021/12/21 02:51:13;;;;;;;11.67;7.57;;;;;;;-3.91;100.00;98913.94;5053774;28;20220;-63
2021/12/21 02:53:41;;;;;;;11.73;7.07;;;;;;;-3.94;100.00;98916.50;5053700;28;20232;-63
2021/12/21 02:56:08;;;;;;;13.20;6.50;;;;;;;-4.06;100.00;98912.22;5046911;28;20680;-63
2021/12/21 02:58:34;;;;;;;12.40;7.13;;;;;;;-4.11;100.00;98910.47;5053514;28;20616;-63
2021/12/21 03:01:01;;;;;;;14.07;7.37;;;;;;;-4.15;100.00;98906.19;5053661;28;20215;-63
2021/12/21 03:03:27;;;;;;;12.37;7.70;;;;;;;-4.26;100.00;98907.91;5053696;28;20207;-63
2021/12/21 03:05:56;;;;;;;10.73;7.73;;;;;;;-4.29;100.00;98915.66;5053565;28;20213;-63
2021/12/21 03:08:24;;;;;;;11.30;7.03;;;;;;;-4.33;100.00;98914.75;5053472;28;20271;-63
2021/12/21 03:11:05;;;;;;;11.50;6.87;;;;;;;-4.35;100.00;98915.66;5053199;28;20261;-63
2021/12/21 03:16:16;;;;;;;12.30;6.80;;;;;;;-4.43;100.00;98917.31;5051975;28;20220;-63
2021/12/21 03:18:42;;;;;;;11.90;8.03;;;;;;;-4.45;100.00;98913.91;5053091;28;20662;-63
2021/12/21 03:21:09;;;;;;;10.27;7.13;;;;;;;-4.38;100.00;98906.19;5053415;28;20212;-63
2021/12/21 03:23:35;;;;;;;12.03;7.97;;;;;;;-4.21;100.00;98914.78;5053413;28;20211;-63
2021/12/21 03:26:03;;;;;;;13.43;8.03;;;;;;;-4.07;100.00;98907.94;5053243;28;20216;-63
2021/12/21 03:28:30;;;;;;;13.70;7.90;;;;;;;-4.03;100.00;98908.78;5053099;28;20578;-63
2021/12/21 03:30:57;;;;;;;13.73;8.10;;;;;;;-4.08;100.00;98906.22;5053075;28;20212;-63
2021/12/21 03:33:23;;;;;;;13.80;7.97;;;;;;;-4.20;100.00;98905.31;5053175;28;20217;-63
2021/12/21 03:35:50;;;;;;;11.40;6.87;;;;;;;-4.28;100.00;98907.88;5052763;28;20235;-63
2021/12/21 03:38:17;;;;;;;18.13;7.93;;;;;;;-4.29;100.00;98905.34;5053172;28;20208;-63
2021/12/21 03:40:44;;;;;;;12.23;6.90;;;;;;;-4.36;100.00;98913.91;5041638;28;20226;-63
2021/12/21 03:43:11;;;;;;;13.47;7.23;;;;;;;-4.42;100.00;98901.84;5053195;28;20578;-63
2021/12/21 03:45:42;;;;;;;11.77;6.73;;;;;;;-4.44;100.00;98907.88;5053319;28;20610;-63
2021/12/21 03:48:13;;;;;;;12.50;7.70;;;;;;;-4.46;100.00;98907.03;5052917;28;20653;-63
2021/12/21 03:50:39;;;;;;;15.00;8.57;;;;;;;-4.43;100.00;98905.31;5052741;28;20220;-63
2021/12/21 03:53:06;;;;;;;11.63;7.50;;;;;;;-4.35;100.00;98905.31;5053067;28;20217;-63
2021/12/21 03:55:33;;;;;;;12.63;7.47;;;;;;;-4.39;100.00;98908.75;5052909;28;20245;-63
2021/12/21 03:57:59;;;;;;;13.27;7.47;;;;;;;-4.39;100.00;98903.59;5052547;28;20212;-63
2021/12/21 04:00:28;;;;;;;12.57;6.83;;;;;;;-4.39;100.00;98904.44;5052603;28;20212;-63
2021/12/21 04:02:55;;;;;;;11.13;6.47;;;;;;;-4.33;100.00;98909.59;5052543;28;20222;-63
2021/12/21 04:05:22;;;;;;;16.23;7.23;;;;;;;-4.32;100.00;98906.19;5052652;28;20670;-63
2021/12/21 04:07:48;;;;;;;13.23;6.53;;;;;;;-4.37;100.00;98901.84;5051136;28;20206;-63
2021/12/21 04:10:15;;;;;;;14.30;7.80;;;;;;;-4.41;100.00;98903.56;5048582;28;20222;-63
2021/12/21 04:12:41;;;;;;;10.27;6.77;;;;;;;-4.35;100.00;98906.16;5047447;28;20217;-63
2021/12/21 04:15:08;;;;;;;9.80;7.00;;;;;;;-4.31;100.00;98913.06;5052531;28;20232;-63
2021/12/21 04:17:36;;;;;;;12.97;7.30;;;;;;;-4.27;100.00;98913.94;5052728;28;20217;-63
2021/12/21 04:20:03;;;;;;;12.87;7.00;;;;;;;-4.26;100.00;98910.47;5052770;28;20218;-63
2021/12/21 04:22:29;;;;;;;14.23;7.83;;;;;;;-4.33;100.00;98913.91;5052582;28;20216;-63
2021/12/21 04:24:56;;;;;;;15.43;7.07;;;;;;;-4.34;100.00;98912.19;5052749;28;20221;-63
2021/12/21 04:27:22;;;;;;;13.07;6.93;;;;;;;-4.42;100.00;98913.88;5052716;28;20583;-63
2021/12/21 04:29:49;;;;;;;13.10;7.60;;;;;;;-4.35;100.00;98915.66;5052678;28;20220;-63
2021/12/21 04:32:16;;;;;;;11.23;7.30;;;;;;;-4.34;100.00;98912.19;5050912;28;20212;-63
2021/12/21 04:34:44;;;;;;;12.17;7.93;;;;;;;-4.30;100.00;98913.91;5052517;28;20619;-63
2021/12/21 04:37:10;;;;;;;14.43;7.83;;;;;;;-4.33;100.00;98913.91;5052630;28;20214;-63
2021/12/21 04:39:42;;;;;;;9.67;6.77;;;;;;;-4.34;100.00;98909.63;5052594;28;20635;-63
2021/12/21 04:42:09;;;;;;;15.80;8.03;;;;;;;-4.33;100.00;98916.50;5052596;28;20213;-63
2021/12/21 04:44:36;;;;;;;11.07;6.90;;;;;;;-4.34;100.00;98914.78;5052509;28;20244;-63
2021/12/21 04:47:03;;;;;;;14.60;8.37;;;;;;;-4.44;100.00;98905.28;5052226;28;20221;-63
2021/12/21 04:49:30;;;;;;;13.13;8.23;;;;;;;-4.45;100.00;98911.31;5052112;28;20682;-63
2021/12/21 04:51:58;;;;;;;12.17;6.60;;;;;;;-4.47;100.00;98906.16;5052468;28;20218;-63
2021/12/21 04:54:24;;;;;;;15.23;8.50;;;;;;;-4.52;100.00;98909.59;5052350;28;20259;-63
2021/12/21 04:56:51;;;;;;;12.13;6.97;;;;;;;-4.52;100.00;98901.84;5052102;28;20663;-63
2021/12/21 04:59:17;;;;;;;11.67;7.50;;;;;;;-4.64;100.00;98902.66;5050519;28;20702;-63
2021/12/21 05:01:44;;;;;;;15.37;8.43;;;;;;;-4.67;100.00;98896.63;5052083;28;20212;-63
2021/12/21 05:04:10;;;;;;;11.40;7.13;;;;;;;-4.70;100.00;98894.91;5052056;28;20214;-63
2021/12/21 05:06:37;;;;;;;14.30;7.10;;;;;;;-4.70;100.00;98894.91;5052165;28;20214;-63
2021/12/21 05:09:10;;;;;;;12.60;7.67;;;;;;;-4.67;100.00;98899.22;5052741;28;20212;-63
2021/12/21 05:11:39;;;;;;;12.37;7.57;;;;;;;-4.72;100.00;98898.34;5055733;28;20252;-63
2021/12/21 05:14:08;;;;;;;16.30;8.50;;;;;;;-4.68;100.00;98907.81;5055632;28;20267;-63
2021/12/21 05:16:35;;;;;;;14.73;7.87;;;;;;;-4.72;100.00;98903.50;5055838;28;20303;-63
2021/12/21 05:19:02;;;;;;;13.03;7.17;;;;;;;-4.69;100.00;98899.25;5055739;28;20208;-63
2021/12/21 05:21:28;;;;;;;13.87;7.17;;;;;;;-4.64;100.00;98892.34;5055443;28;20212;-63
2021/12/21 05:23:55;;;;;;;13.60;7.03;;;;;;;-4.68;100.00;98897.50;5055384;28;20689;-63
2021/12/21 05:26:22;;;;;;;14.00;7.30;;;;;;;-4.70;100.00;98896.66;5044688;28;20213;-63
2021/12/21 05:28:49;;;;;;;11.57;7.20;;;;;;;-4.75;100.00;98888.03;5055539;28;20226;-63
2021/12/21 05:31:15;;;;;;;11.00;6.43;;;;;;;-4.69;100.00;98893.22;5055172;28;20227;-63
2021/12/21 05:33:42;;;;;;;11.10;6.23;;;;;;;-4.73;100.00;98891.47;5055355;28;20219;-63
2021/12/21 05:36:08;;;;;;;12.30;6.73;;;;;;;-4.74;100.00;98893.22;5055031;28;20239;-63
2021/12/21 05:38:35;;;;;;;13.90;7.17;;;;;;;-4.79;100.00;98887.16;5055378;28;20223;-63
2021/12/21 05:41:06;;;;;;;11.30;7.10;;;;;;;-4.88;100.00;98887.13;5055540;28;20282;-63
2021/12/21 05:43:34;;;;;;;13.07;7.20;;;;;;;-4.96;100.00;98877.69;5054910;28;20669;-63
2021/12/21 05:46:01;;;;;;;10.53;8.20;;;;;;;-4.98;100.00;98875.09;5055012;28;20593;-63
2021/12/21 05:48:28;;;;;;;13.70;7.70;;;;;;;-5.00;100.00;98875.94;5054815;28;20215;-63
2021/12/21 05:50:54;;;;;;;12.80;8.27;;;;;;;-4.99;100.00;98875.06;5053400;28;20219;-63
2021/12/21 05:53:21;;;;;;;11.13;7.33;;;;;;;-5.01;100.00;98884.53;5054738;28;20692;-62
2021/12/21 05:55:47;;;;;;;13.03;7.40;;;;;;;-5.01;100.00;98875.06;5054674;28;20725;-63
2021/12/21 05:58:14;;;;;;;13.47;7.97;;;;;;;-5.07;100.00;98879.34;5054630;28;20685;-63
2021/12/21 06:00:42;;;;;;;15.40;7.57;;;;;;;-5.05;100.00;98882.78;5054895;28;20216;-63
2021/12/21 06:03:08;;;;;;;13.70;7.80;;;;;;;-5.07;100.00;98879.34;5054846;28;20236;-63
2021/12/21 06:05:35;;;;;;;14.10;7.67;;;;;;;-5.14;100.00;98883.59;5054448;28;20221;-63
2021/12/21 06:08:03;;;;;;;12.30;7.60;;;;;;;-5.20;100.00;98890.47;5054594;28;20212;-63
2021/12/21 06:10:33;;;;;;;11.80;8.43;;;;;;;-5.22;100.00;98885.28;5054780;28;20579;-62
2021/12/21 06:15:52;;;;;;;12.27;7.10;;;;;;;-5.12;100.00;98888.78;5049472;28;20240;-63
2021/12/21 06:26:31;;;;;;;10.97;7.27;;;;;;;-5.17;100.00;98891.34;5053766;28;20704;-63
2021/12/21 06:28:58;;;;;;;12.27;7.43;;;;;;;-5.22;100.00;98881.84;5054380;28;20211;-63
2021/12/21 06:31:26;;;;;;;11.87;7.30;;;;;;;-5.29;100.00;98887.81;5054226;28;20212;-63
2021/12/21 06:33:53;;;;;;;11.73;7.30;;;;;;;-5.31;100.00;98889.53;5053955;28;20667;-62
2021/12/21 06:36:20;;;;;;;11.70;7.73;;;;;;;-5.38;100.00;98887.81;5054122;28;20247;-63
2021/12/21 06:38:46;;;;;;;9.90;7.20;;;;;;;-5.35;100.00;98895.53;5054173;28;20302;-63
2021/12/21 06:41:13;;;;;;;12.10;7.40;;;;;;;-5.35;100.00;98887.78;5044417;28;20208;-62
2021/12/21 06:43:40;;;;;;;10.30;6.53;;;;;;;-5.34;100.00;98889.50;5051925;28;20685;-63
2021/12/21 06:46:14;;;;;;;12.63;7.17;;;;;;;-5.29;100.00;98895.56;5054107;28;20234;-63
2021/12/21 06:51:32;;;;;;;11.30;7.13;;;;;;;-5.37;100.00;98889.50;5053709;28;20342;-63
2021/12/21 06:53:59;;;;;;;12.40;6.87;;;;;;;-5.38;100.00;98880.06;5053911;28;20222;-63
2021/12/21 06:56:27;;;;;;;11.80;7.07;;;;;;;-5.39;100.00;98880.91;5053368;28;20694;-63
2021/12/21 06:58:55;;;;;;;12.53;7.57;;;;;;;-5.38;100.00;98882.66;5053694;28;20216;-63
2021/12/21 07:01:22;;;;;;;13.23;7.83;;;;;;;-5.37;100.00;98880.06;5053697;28;20224;-63
2021/12/21 07:03:50;;;;;;;12.37;7.20;;;;;;;-5.38;100.00;98882.66;5053669;28;20211;-63
2021/12/21 07:06:18;;;;;;;12.23;8.07;;;;;;;-5.34;100.00;98884.34;5053348;28;20667;-63
2021/12/21 07:08:52;;;;;;;13.20;7.43;;;;;;;-5.28;100.00;98894.69;5051885;28;20217;-62
2021/12/21 07:11:25;;;;;;;13.83;8.03;;;;;;;-5.26;100.00;98882.72;5053499;28;20224;-63
2021/12/21 07:19:23;;;;;;;15.00;7.83;;;;;;;-5.18;100.00;98891.31;5053149;28;20719;-62
2021/12/21 07:21:49;;;;;;;15.47;8.40;;;;;;;-5.07;100.00;98894.81;5053312;28;20219;-63
2021/12/21 07:24:16;;;;;;;13.03;7.57;;;;;;;-5.00;100.00;98891.41;5053404;28;20212;-63
2021/12/21 07:26:43;;;;;;;12.00;8.07;;;;;;;-4.95;100.00;98894.84;5053180;28;20801;-63
2021/12/21 07:29:09;;;;;;;17.03;7.43;;;;;;;-4.94;100.00;98896.56;5053341;28;20227;-63
2021/12/21 07:31:36;;;;;;;14.37;8.63;;;;;;;-4.97;100.00;98891.38;5052986;28;20295;-62
2021/12/21 07:34:03;;;;;;;14.70;8.80;;;;;;;-4.95;100.00;98898.28;5052574;28;20228;-62
2021/12/21 07:36:32;;;;;;;15.40;7.90;;;;;;;-4.81;100.00;98899.19;5052169;28;20260;-63
2021/12/21 07:38:59;;;;;;;14.33;8.13;;;;;;;-4.75;100.00;98900.94;5053128;28;20266;-63
2021/12/21 07:41:26;;;;;;;16.80;8.27;;;;;;;-4.70;100.00;98904.38;5052749;28;20212;-63
2021/12/21 07:43:53;;;;;;;13.00;7.30;;;;;;;-4.65;100.00;98916.41;5052754;28;20212;-62
2021/12/21 07:46:20;;;;;;;13.23;8.57;;;;;;;-4.60;100.00;98913.84;5052713;28;20224;-62
2021/12/21 07:48:47;;;;;;;17.23;7.70;;;;;;;-4.43;100.00;98907.00;5053004;28;20215;-62
2021/12/21 07:51:13;;;;;;;11.37;8.30;;;;;;;-4.40;100.00;98918.19;5052966;28;20219;-62
2021/12/21 07:53:42;;;;;;;13.77;7.57;;;;;;;-4.38;100.00;98915.63;5052660;28;20220;-62
2021/12/21 07:56:10;;;;;;;12.67;8.53;;;;;;;-4.35;100.00;98918.22;5044232;28;20289;-62
2021/12/21 07:58:37;;;;;;;12.73;8.60;;;;;;;-4.24;100.00;98919.06;5052813;28;20222;-62
2021/12/21 08:01:06;;;;;;;14.20;8.57;;;;;;;-4.18;100.00;98924.25;5051165;28;20232;-62
2021/12/21 08:03:33;;;;;;;12.43;8.37;;;;;;;-4.15;100.00;98911.34;5052693;28;20208;-62
2021/12/21 08:06:01;;;;;;;11.67;8.10;;;;;;;-4.14;100.00;98921.69;5052963;28;20304;-62
2021/12/21 08:08:29;;;;;;;14.63;8.77;;;;;;;-4.15;100.00;98919.94;5052673;28;20208;-62
2021/12/21 08:11:11;;;;;;;14.73;8.77;;;;;;;-4.07;100.00;98927.69;5052835;28;20247;-62
2021/12/21 08:13:40;;;;;;;16.93;9.90;;;;;;;-4.04;100.00;98922.56;5051390;28;20212;-61
2021/12/21 08:16:07;;;;;;;15.40;9.40;;;;;;;-4.07;100.00;98930.28;5040885;28;20241;-62
2021/12/21 08:18:34;;;;;;;13.90;9.50;;;;;;;-4.00;100.00;98930.28;5051790;28;20219;-62
2021/12/21 08:21:00;;;;;;;15.13;9.00;;;;;;;-3.95;100.00;98930.28;5051563;28;20526;-62
2021/12/21 08:23:27;;;;;;;15.63;9.03;;;;;;;-3.94;100.00;98924.25;5050045;28;20209;-62
2021/12/21 08:25:54;;;;;;;21.15;15.10;;;;;;;-3.83;100.00;98938.03;5041119;28;20965;-61
2021/12/21 08:28:22;;;;;;;16.37;10.40;;;;;;;-3.81;100.00;98931.13;5061613;28;20577;-63
2021/12/21 08:30:48;;;;;;;14.37;9.20;;;;;;;-3.82;100.00;98930.31;5048760;28;20217;-62
2021/12/21 08:33:16;;;;;;;16.27;9.70;;;;;;;-3.75;100.00;98928.56;5054949;28;20227;-63
2021/12/21 08:35:44;;;;;;;15.73;9.10;;;;;;;-3.63;100.00;98932.00;5060560;28;20282;-62
2021/12/21 08:38:14;;;;;;;12.67;8.67;;;;;;;-3.53;100.00;98927.69;5050414;28;20241;-62
2021/12/21 08:40:43;;;;;;;14.73;8.93;;;;;;;-3.56;100.00;98936.28;5057359;28;20251;-62
2021/12/21 08:43:12;;;;;;;13.93;8.63;;;;;;;-3.49;100.00;98929.41;5045699;28;20760;-63
2021/12/21 08:45:42;;;;;;;13.13;8.77;;;;;;;-3.39;100.00;98926.81;5062180;28;20243;-64
2021/12/21 08:48:09;;;;;;;13.80;8.57;;;;;;;-3.37;100.00;98930.25;5054854;28;20216;-61
2021/12/21 08:50:37;;;;;;;11.60;8.87;;;;;;;-3.31;100.00;98930.22;5054646;28;20585;-61
2021/12/21 08:53:04;;;;;;;16.23;8.93;;;;;;;-3.19;100.00;98931.94;5052789;28;20220;-61
2021/12/21 08:55:31;;;;;;;16.50;8.87;;;;;;;-3.05;100.00;98923.25;5053924;28;20245;-64
2021/12/21 08:57:58;;;;;;;15.97;10.53;;;;;;;-2.95;100.00;98922.38;5055851;28;20215;-64
2021/12/21 09:00:25;;;;;;;13.07;8.60;;;;;;;-2.87;100.00;98923.19;5056055;28;20216;-64
2021/12/21 09:02:54;;;;;;;13.20;8.87;;;;;;;-2.78;100.00;98918.00;5056116;28;20213;-64
2021/12/21 09:05:26;;;;;;;13.53;8.80;;;;;;;-2.71;100.00;98916.22;5055939;28;20236;-64
2021/12/21 09:07:52;;;;;;;13.63;9.37;;;;;;;-2.64;100.00;98916.19;5055763;28;20217;-64
2021/12/21 09:10:21;;;;;;;16.20;9.20;;;;;;;-2.60;100.00;98919.63;5066673;28;20219;-64
2021/12/21 09:12:49;;;;;;;13.13;9.33;;;;;;;-2.56;100.00;98922.22;5055701;28;20216;-64
2021/12/21 09:15:17;;;;;;;14.27;8.90;;;;;;;-2.52;100.00;98915.28;5055353;28;20234;-64
2021/12/21 09:17:44;;;;;;;15.67;8.70;;;;;;;-2.47;100.00;98923.84;5055396;28;20252;-64
2021/12/21 09:20:14;;;;;;;10.57;8.00;;;;;;;-2.42;100.00;98920.41;5065156;28;20217;-64
2021/12/21 09:22:42;;;;;;;14.50;8.70;;;;;;;-2.39;100.00;98927.28;5055379;28;20211;-64
2021/12/21 09:25:10;;;;;;;13.37;8.53;;;;;;;-2.36;100.00;98922.94;5055481;28;20229;-64
2021/12/21 09:27:37;;;;;;;14.93;8.43;;;;;;;-2.31;100.00;98915.16;5055417;28;20217;-64
2021/12/21 09:30:06;;;;;;;12.63;8.53;;;;;;;-2.26;100.00;98918.56;5055178;28;20221;-64
2021/12/21 09:32:33;;;;;;;13.50;8.20;;;;;;;-2.20;100.00;98921.13;5055030;28;20677;-64
2021/12/21 09:34:59;;;;;;;11.63;8.30;;;;;;;-2.13;100.00;98925.38;5055171;28;20615;-64
2021/12/21 09:37:27;;;;;;;12.97;8.17;;;;;;;-2.11;100.00;98919.31;5055373;28;20244;-64
2021/12/21 09:39:56;;;;;;;12.20;8.20;;;;;;;-2.07;100.00;98920.16;5055236;28;20219;-64
2021/12/21 09:42:25;;;;;;;11.93;7.90;;;;;;;-2.08;100.00;98923.63;5055427;28;20580;-64
2021/12/21 09:44:53;;;;;;;13.17;8.63;;;;;;;-2.04;100.00;98925.31;5054438;28;20248;-63
2021/12/21 09:47:19;;;;;;;15.77;8.97;;;;;;;-2.04;100.00;98926.19;5054063;28;20218;-64
2021/12/21 09:49:47;;;;;;;14.73;9.73;;;;;;;-1.95;100.00;98925.25;5055197;28;20569;-63
2021/12/21 09:52:18;;;;;;;15.77;9.17;;;;;;;-1.90;100.00;98929.50;5054926;28;20218;-64
2021/12/21 09:54:46;;;;;;;12.47;8.43;;;;;;;-1.90;100.00;98928.69;5054247;28;20285;-63
2021/12/21 09:57:16;;;;;;;10.93;8.77;;;;;;;-1.86;100.00;98930.34;5054772;28;20246;-64
2021/12/21 09:59:44;;;;;;;13.70;9.00;;;;;;;-1.84;100.00;98926.03;5054873;28;20216;-63
2021/12/21 10:02:10;;;;;;;17.37;9.73;;;;;;;-1.80;100.00;98925.13;5054819;28;20218;-64
2021/12/21 10:04:45;;;;;;;12.30;9.83;;;;;;;-1.70;100.00;98922.47;5054624;28;20219;-63
2021/12/21 10:07:12;;;;;;;17.17;10.93;;;;;;;-1.64;100.00;98918.94;5054782;28;20222;-64
2021/12/21 10:09:43;;;;;;;14.83;10.63;;;;;;;-1.58;100.00;98916.31;5054505;28;20222;-63
2021/12/21 10:12:14;;;;;;;15.23;10.73;;;;;;;-1.57;100.00;98907.66;5053206;28;20225;-63
2021/12/21 10:14:41;;;;;;;15.40;10.30;;;;;;;-1.44;100.00;98904.06;5054334;28;20264;-63
2021/12/21 10:17:09;;;;;;;15.63;9.87;;;;;;;-1.43;100.00;98908.38;5053993;28;20248;-63
2021/12/21 10:19:38;;;;;;;14.60;10.00;;;;;;;-1.42;100.00;98910.13;5054668;28;20215;-63
2021/12/21 10:22:11;;;;;;;14.87;9.47;;;;;;;-1.35;100.00;98907.41;5054277;28;20219;-63
2021/12/21 10:24:46;;;;;;;16.57;10.70;;;;;;;-1.29;100.00;98904.75;5054091;28;20214;-63
2021/12/21 10:27:14;;;;;;;14.50;9.70;;;;;;;-1.26;100.00;98901.28;5054171;28;20218;-63
2021/12/21 10:29:43;;;;;;;15.53;10.43;;;;;;;-1.22;100.00;98895.19;5054210;28;20215;-64
2021/12/21 10:32:18;;;;;;;17.47;9.60;;;;;;;-1.09;100.00;98887.28;5054086;28;20246;-63
2021/12/21 10:34:54;;;;;;;10.83;8.33;;;;;;;-0.99;100.00;98893.22;5054288;28;20246;-63
2021/12/21 10:37:25;;;;;;;12.93;8.40;;;;;;;-0.95;100.00;98884.50;5040336;28;20246;-63
2021/12/21 10:40:07;;;;;;;12.67;9.00;;;;;;;-0.90;100.00;98887.91;5053951;28;20674;-63
2021/12/21 10:42:46;;;;;;;14.40;8.80;;;;;;;-0.89;100.00;98884.44;5054177;28;20215;-63
2021/12/21 10:45:13;;;;;;;15.47;8.67;;;;;;;-0.83;100.00;98884.34;5042021;28;20243;-63
2021/12/21 10:47:39;;;;;;;12.93;8.67;;;;;;;-0.74;100.00;98889.44;5053924;28;20306;-62
2021/12/21 10:50:07;;;;;;;11.30;8.60;;;;;;;-0.68;100.00;98885.00;5053893;28;20223;-62
2021/12/21 10:52:33;;;;;;;12.00;8.47;;;;;;;-0.67;100.00;98878.09;5053728;28;20215;-62
2021/12/21 10:54:59;;;;;;;13.73;7.43;;;;;;;-0.59;100.00;98874.53;5053907;28;20583;-62
2021/12/21 10:57:31;;;;;;;11.57;8.00;;;;;;;-0.48;100.00;98867.47;5053782;28;20250;-62
2021/12/21 11:00:03;;;;;;;10.73;7.33;;;;;;;-0.50;100.00;98868.34;5053854;28;20216;-62
2021/12/21 11:02:34;;;;;;;12.20;7.40;;;;;;;-0.45;100.00;98861.38;5067272;28;20223;-62
2021/12/21 11:05:03;;;;;;;11.93;7.67;;;;;;;-0.42;100.00;98856.97;5051999;28;20234;-63
2021/12/21 11:07:35;;;;;;;9.50;7.10;;;;;;;-0.43;100.00;98859.59;5052440;28;20215;-62
2021/12/21 11:10:10;;;;;;;11.83;7.53;;;;;;;-0.41;100.00;98853.50;5067011;28;20226;-63
2021/12/21 11:12:42;;;;;;;10.33;7.80;;;;;;;-0.44;100.00;98860.47;5040053;28;20215;-63
2021/12/21 11:15:12;;;;;;;13.23;8.03;;;;;;;-0.34;100.00;98851.66;5053145;28;20219;-63
2021/12/21 11:17:39;;;;;;;9.17;7.10;;;;;;;-0.39;100.00;98856.09;5053400;28;20301;-63
2021/12/21 11:20:07;;;;;;;10.73;7.83;;;;;;;-0.41;100.00;98852.63;5053316;28;20219;-63
2021/12/21 11:22:35;;;;;;;9.73;7.47;;;;;;;-0.41;100.00;98855.22;5053408;28;20242;-62
2021/12/21 11:25:02;;;;;;;10.30;7.70;;;;;;;-0.38;100.00;98844.81;5053164;28;20224;-62
2021/12/21 11:27:30;;;;;;;11.13;7.70;;;;;;;-0.44;100.00;98842.31;5053461;28;20223;-62
2021/12/21 11:30:01;;;;;;;10.83;7.67;;;;;;;-0.40;100.00;98838.75;5064785;28;20211;-62
2021/12/21 11:32:32;;;;;;;9.37;7.60;;;;;;;-0.32;100.00;98845.56;5052967;28;20227;-62
2021/12/21 11:37:20;;;;;;;10.23;6.70;;;;;;;-0.38;100.00;98847.41;5053043;28;20230;-62
2021/12/21 11:37:56;;;;;;;8.37;6.73;;;;;;;-0.40;100.00;98833.56;5064374;28;20317;-62
2021/12/21 11:40:26;;;;;;;10.17;7.03;;;;;;;-0.37;100.00;98828.34;5053131;28;20234;-62
2021/12/21 11:43:01;;;;;;;11.60;7.37;;;;;;;-0.39;100.00;98824.91;5053049;28;20600;-62
2021/12/21 11:45:31;;;;;;;14.00;8.30;;;;;;;-0.33;100.00;98830.03;5052776;28;20289;-62
2021/12/21 11:48:16;;;;;;;12.13;8.70;;;;;;;-0.30;100.00;98837.75;5053009;28;20215;-63
2021/12/21 11:50:45;;;;;;;9.30;7.20;;;;;;;-0.20;100.00;98831.53;5052925;28;20218;-63
2021/12/21 11:53:13;;;;;;;12.03;7.37;;;;;;;-0.18;100.00;98830.63;5052983;28;20235;-62
2021/12/21 11:55:43;;;;;;;8.40;6.70;;;;;;;-0.17;100.00;98826.28;5051100;28;20212;-63